Airfield :
LOGIN :

Register | Disclaimer

   EN    FR    IT 

 










Legend :    VFR   Marginal VFR   IFR   Intensive IFR   Very Intensive IFR
Visi :
Ceiling :
>= 8 km
>= 3000ft
5 to 8 km
1000 to 3000 ft
1500m to 5 km
500 to 1000 ft
800 to 1500m
200 to 500 ft
< 800m
< 200 ft
Symbols :   Thunderstorms  Fog  Heavy snow  Heavy precipitations  Wind > 20 kt
SIGMETs :     Misc.  Thunderstorms  Icing  Turbulence  Mountain Waves  Volcanic Ashes






- Airport Elevation : 16 ft
- IATA code : SDR


LEXJ - Santander Cantabria

CURRENT METAR :
  • 090330Z VRB01KT 4200 BR NSC 12/11 Q1000

EXPIRED METARs :
  • 090300Z AUTO 00000KT 3900 BR NCD 12/12 Q1000
  • 090230Z AUTO VRB01KT 4100 BR NCD 12/11 Q1001
  • 090200Z AUTO 11004KT 080V140 4900 BR NCD 13/12 Q1001
  • 090130Z AUTO VRB01KT 4200 BR FEW008 13/12 Q1002
  • 090100Z AUTO 14003KT 6000 NCD 13/12 Q1002
  • 090030Z AUTO VRB01KT 6000 BKN010 14/12 Q1003

TAF TAF LEXJ
Valid from the 09 at 03:00 until the 10 at 03:00 UTC


090200Z 0903/1003 VRB05KT 9999 FEW035 SCT050 TX26/0912Z TN09/1003Z
PROB30
TEMPO 0903/0904 3000 BR BKN010
BECMG 0905/0908 22012KT
TEMPO 0909/0912 24015G25KT
BECMG 0911/0912 28012KT
TEMPO 0912/0915 29016G28KT FEW030TCU
TEMPO 0915/0920 27016G28KT RA SHRA SCT030TCU
PROB30
TEMPO 0917/0919 4000 SHRA TS BKN010 SCT025CB
BECMG 0918/0921 22007KT



MET'MAP, your aeronautical weather chart ! - Copyright ORBIFLY December 2007 - Disclaimer

ORBIFLY MET'MAP TEAM :

Programming & Development : Alexandra Zaïnal
Concept & original design : Baudouin d'Aumeries
Assistance for programming : Marc-Olivier Méhu
Technical & hardware support : Manuel Goepfert

Contact : metmap@orbifly.com




SOURCES & CREDITS :

   NOAA